AirNav   Pilot Hours Calculator
 
 1023 users online  

VG51 Sentara Obici Hospital Heliport
Elephant Fork, Virginia, USA

GOING TO ELEPHANT FORK?


FAA INFORMATION EFFECTIVE 08 OCTOBER 2020

Location

FAA Identifier: VG51
Lat/Long: 36-46-27.9900N 076-34-51.9400W
36-46.466500N 076-34.865667W
36.7744417,-76.5810944
(estimated)
Elevation: 55 ft. / 17 m (estimated)
Variation: 10W (2000)
From city: 1 mile N of ELEPHANT FORK, VA
Time zone: UTC -4 (UTC -5 during Standard Time)
Zip code: 23434

Heliport Operations

Heliport use: Private use, MEDICAL USE.
Activation date: 09/2002
Control tower: no
ARTCC: WASHINGTON CENTER
FSS: LEESBURG FLIGHT SERVICE STATION
Attendance: UNATNDD
Segmented circle: no
Lights: SS-SR

Heliport Communications

WX AWOS-3 at SFQ (6 nm S): 119.375 (757-934-3942)
WX AWOS-3PT at PVG (6 nm E): 118.375 (757-465-2175)
WX AWOS-3 at CPK (14 nm SE): 123.675 (757-204-4290)
WX AWOS-3PT at FKN (16 nm W): 124.675 (757-562-8765)
WX ASOS at ORF (20 nm E): PHONE 757-460-9348

Nearby radio navigation aids

VOR radial/distance  VOR name  Freq  Var
ORFr256/19.6NORFOLK VORTAC116.9007W
FKNr089/21.0FRANKLIN VORTAC110.6009W
CVIr039/27.9COFIELD VORTAC114.6009W
ECGr335/36.7ELIZABETH CITY VOR/DME112.5007W

 
NDB name  Hdg/Dist  Freq  Var  ID
WAKEFIELD133/23.727411WAKQ .- -.- --.-
WOODVILLE346/33.625410WLLW .-.. .-.. .--

Heliport Services

Runway Information

Helipad H1

Dimensions: 40 x 40 ft. / 12 x 12 m
Surface: concrete
Runway edge lights: PERI
Latitude: 36-46.466500N
Longitude: 076-34.865667W
Elevation: 55.0 ft.
Traffic pattern: leftleft

Heliport Ownership and Management from official FAA records

Ownership: Privately-owned
Owner: SENTARA OBICI HOSPITAL
2800 GODWIN BLVD
SUFFOLK, VA 23434
Phone (757) 934-4945
Manager: RANDY VICK
2800 GODWIN BLVD
SUFFOLK, VA 23434
Phone 757-934-4945
OTHER CONTACT: 757-934-4715

Additional Remarks

FOR CD CTC NORFOLK APCH AT 757-464-0757.

Instrument Procedures

There are no published instrument procedures at VG51.

Some nearby airports with instrument procedures:

KSFQ - Suffolk Executive Airport (6 nm S)
KPVG - Hampton Roads Executive Airport (6 nm E)
KCPK - Chesapeake Regional Airport (14 nm SE)
KFKN - Franklin Regional Airport (16 nm W)
KNGU - Norfolk Naval Station (Chambers Field) (17 nm NE)
KORF - Norfolk International Airport (20 nm E)
 
Loc | Ops | Rwys | IFR | FBO | Links
Com | Nav | Svcs | Stats | Notes
Area around VG51 (Sentara Obici Hospital Heliport)
 
Road maps at: MapQuest Bing Google
 
Aerial photo
No photo
 
Sectional chart

 
Airport distance calculator
Flying to Sentara Obici Hospital Heliport? Find the distance to fly.

From to VG51

Sunrise and sunset
Times for 19-Oct-2020
 Local
(UTC-4)
 Zulu
(UTC)
Morning civil twilight06:5310:53
Sunrise07:1911:19
Sunset18:2322:23
Evening civil twilight18:4922:49

Current date and time
Zulu (UTC)  20-Oct-2020 02:23:57
Local (UTC-4)  19-Oct-2020 22:23:57
 
METAR
KSFQ 
6nm S 
200155Z AUTO 00000KT 10SM OVC007 19/18 A3025 RMK AO2 T01930182
KCPK 
14nm SE 
200155Z AUTO 08004KT 10SM BKN006 OVC023 18/18 A3024 RMK AO2 T01830176
KFKN 
16nm W 
200155Z AUTO 00000KT 10SM OVC012 18/18 A3024 RMK AO2 T01800177
KNGU 
17nm NE 
200159Z 11006KT 10SM BKN024 OVC030 19/18 A3025 RMK AO2 SLP242 T01940178 $
KORF 
20nm E 
200151Z 09003KT 10SM FEW005 OVC023 19/18 A3024 RMK AO2 SLP239 T01940183
TAF
KNGU 
17nm NE 
1915/2015 09008KT 9999 SCT030 SCT300 QNH3018INS FM192300 10006KT 9999 BKN030 BKN250 QNH3018INS FM200100 10004KT 9999 BKN020 BKN200 QNH3016INS FM200500 VRB04KT 9999 BKN015 OVC040 QNH3015INS FM200900 VRB04KT 9000 BR BKN008 OVC015 QNH3015INS T22/1918Z T17/2010Z FN20004
KORF 
20nm E 
191740Z 1918/2018 09010KT P6SM SCT040 FM192100 09006KT P6SM BKN035 FM200500 10003KT P6SM BKN007 FM201000 VRB02KT 3SM BR OVC004 FM201500 07005KT P6SM BKN015
KLFI 
20nm NE 
192120Z 1921/2023 09009KT 9999 SCT050 BKN080 QNH3020INS BECMG 2000/2001 06009KT 9999 BKN015 QNH3024INS BECMG 2004/2005 VRB06KT 4800 BR OVC007 QNH3022INS TEMPO 2012/2015 3200 BR OVC004 TX23/2017Z TN17/2000Z LAST NO AMDS AFT 1921 NEXT 2009
KFAF 
21nm N 
191800Z 1918/2024 VRB06KT 9999 FEW020 SCT150 QNH3025INS BECMG 1921/1922 VRB06KT 9999 SCT030 QNH3023INS BECMG 2005/2006 VRB06KT 9999 BKN030 OVC050 QNH3020INS TX23/1918Z TN17/2009Z
NOTAMs
Click for the latest NOTAMs
NOTAMs are issued by the DoD/FAA and will open in a separate window not controlled by AirNav.

 

 
 

Would you like to see your business listed on this page?

 If your business provides an interesting product or service to pilots, flight crews, aircraft, or users of the Sentara Obici Hospital Heliport, you should consider listing it here.  To start the listing process, click on the button below
 
Add a business
 

Other Pages about Sentara Obici Hospital Heliport

Update a link
 
Copyright © AirNav, LLC. All rights reserved. Privacy Policy  Contact